sensor_id;sensor_type;location;lat;lon;timestamp;pressure;altitude;pressure_sealevel;temperature;humidity
22688;BME280;11511;51.514;7.080;2023-08-17T00:06:48;101491.59;;;15.64;100.00
22688;BME280;11511;51.514;7.080;2023-08-17T00:09:14;101486.28;;;15.64;100.00
22688;BME280;11511;51.514;7.080;2023-08-17T00:11:40;101484.38;;;15.67;100.00
22688;BME280;11511;51.514;7.080;2023-08-17T00:14:06;101485.28;;;15.66;100.00
22688;BME280;11511;51.514;7.080;2023-08-17T00:16:33;101496.06;;;15.63;100.00
22688;BME280;11511;51.514;7.080;2023-08-17T00:19:02;101516.50;;;15.61;100.00
22688;BME280;11511;51.514;7.080;2023-08-17T00:21:28;101520.19;;;15.59;100.00
22688;BME280;11511;51.514;7.080;2023-08-17T00:23:54;101529.84;;;15.60;100.00
22688;BME280;11511;51.514;7.080;2023-08-17T00:26:22;101545.66;;;15.63;100.00
22688;BME280;11511;51.514;7.080;2023-08-17T00:28:50;101541.47;;;15.57;100.00
22688;BME280;11511;51.514;7.080;2023-08-17T00:31:16;101536.16;;;15.57;100.00
22688;BME280;11511;51.514;7.080;2023-08-17T00:33:45;101535.47;;;15.52;100.00
22688;BME280;11511;51.514;7.080;2023-08-17T00:36:11;101533.53;;;15.57;100.00
22688;BME280;11511;51.514;7.080;2023-08-17T00:38:39;101528.38;;;15.52;100.00
22688;BME280;11511;51.514;7.080;2023-08-17T00:41:10;101537.19;;;15.53;100.00
22688;BME280;11511;51.514;7.080;2023-08-17T00:43:36;101535.94;;;15.62;100.00
22688;BME280;11511;51.514;7.080;2023-08-17T00:46:03;101527.00;;;15.64;100.00
22688;BME280;11511;51.514;7.080;2023-08-17T00:48:35;101521.75;;;15.63;100.00
22688;BME280;11511;51.514;7.080;2023-08-17T00:51:08;101530.81;;;15.59;100.00
22688;BME280;11511;51.514;7.080;2023-08-17T00:53:40;101530.88;;;15.55;100.00
22688;BME280;11511;51.514;7.080;2023-08-17T00:56:13;101523.06;;;15.52;100.00
22688;BME280;11511;51.514;7.080;2023-08-17T00:58:47;101519.59;;;15.50;100.00
22688;BME280;11511;51.514;7.080;2023-08-17T01:01:21;101514.28;;;15.50;100.00
22688;BME280;11511;51.514;7.080;2023-08-17T01:17:43;101507.06;;;15.54;100.00
22688;BME280;11511;51.514;7.080;2023-08-17T01:20:18;101511.56;;;15.52;100.00
22688;BME280;11511;51.514;7.080;2023-08-17T01:22:52;101511.41;;;15.56;100.00
22688;BME280;11511;51.514;7.080;2023-08-17T01:25:28;101512.78;;;15.65;100.00
22688;BME280;11511;51.514;7.080;2023-08-17T01:28:00;101503.81;;;15.68;100.00
22688;BME280;11511;51.514;7.080;2023-08-17T01:30:57;101488.22;;;15.60;100.00
22688;BME280;11511;51.514;7.080;2023-08-17T01:33:35;101483.00;;;15.59;100.00
22688;BME280;11511;51.514;7.080;2023-08-17T01:38:42;101482.84;;;15.62;100.00
22688;BME280;11511;51.514;7.080;2023-08-17T01:41:15;101480.19;;;15.62;100.00
22688;BME280;11511;51.514;7.080;2023-08-17T01:43:48;101483.56;;;15.65;100.00
22688;BME280;11511;51.514;7.080;2023-08-17T01:46:20;101474.94;;;15.60;100.00
22688;BME280;11511;51.514;7.080;2023-08-17T01:48:52;101476.66;;;15.61;100.00
22688;BME280;11511;51.514;7.080;2023-08-17T01:51:24;101468.84;;;15.58;100.00
22688;BME280;11511;51.514;7.080;2023-08-17T01:53:56;101463.44;;;15.60;100.00
22688;BME280;11511;51.514;7.080;2023-08-17T01:56:28;101452.16;;;15.54;100.00
22688;BME280;11511;51.514;7.080;2023-08-17T01:59:00;101462.78;;;15.54;100.00
22688;BME280;11511;51.514;7.080;2023-08-17T02:01:32;101464.47;;;15.57;100.00
22688;BME280;11511;51.514;7.080;2023-08-17T02:04:05;101460.78;;;15.60;100.00
22688;BME280;11511;51.514;7.080;2023-08-17T02:06:36;101458.06;;;15.61;100.00
22688;BME280;11511;51.514;7.080;2023-08-17T02:09:08;101454.56;;;15.61;100.00
22688;BME280;11511;51.514;7.080;2023-08-17T02:11:40;101462.47;;;15.62;100.00
22688;BME280;11511;51.514;7.080;2023-08-17T02:14:12;101459.72;;;15.64;100.00
22688;BME280;11511;51.514;7.080;2023-08-17T02:16:44;101463.25;;;15.64;100.00
22688;BME280;11511;51.514;7.080;2023-08-17T02:19:16;101456.94;;;15.67;100.00
22688;BME280;11511;51.514;7.080;2023-08-17T02:21:48;101457.22;;;15.61;100.00
22688;BME280;11511;51.514;7.080;2023-08-17T02:24:20;101460.53;;;15.66;100.00
22688;BME280;11511;51.514;7.080;2023-08-17T02:26:52;101457.31;;;15.59;100.00
22688;BME280;11511;51.514;7.080;2023-08-17T02:29:24;101454.50;;;15.62;100.00
22688;BME280;11511;51.514;7.080;2023-08-17T02:31:56;101450.78;;;15.66;100.00
22688;BME280;11511;51.514;7.080;2023-08-17T02:34:28;101454.41;;;15.64;100.00
22688;BME280;11511;51.514;7.080;2023-08-17T02:37:00;101451.75;;;15.64;100.00
22688;BME280;11511;51.514;7.080;2023-08-17T02:39:32;101441.88;;;15.67;100.00
22688;BME280;11511;51.514;7.080;2023-08-17T02:42:05;101446.53;;;15.62;100.00
22688;BME280;11511;51.514;7.080;2023-08-17T02:44:36;101456.28;;;15.62;100.00
22688;BME280;11511;51.514;7.080;2023-08-17T02:47:09;101447.69;;;15.56;100.00
22688;BME280;11511;51.514;7.080;2023-08-17T02:49:41;101454.41;;;15.64;100.00
22688;BME280;11511;51.514;7.080;2023-08-17T02:52:12;101451.13;;;15.59;100.00
22688;BME280;11511;51.514;7.080;2023-08-17T02:54:44;101456.22;;;15.63;100.00
22688;BME280;11511;51.514;7.080;2023-08-17T02:57:16;101459.19;;;15.55;100.00
22688;BME280;11511;51.514;7.080;2023-08-17T02:59:49;101459.97;;;15.59;100.00
22688;BME280;11511;51.514;7.080;2023-08-17T03:02:22;101460.78;;;15.60;100.00
22688;BME280;11511;51.514;7.080;2023-08-17T03:04:54;101458.31;;;15.56;100.00
22688;BME280;11511;51.514;7.080;2023-08-17T03:07:26;101453.41;;;15.46;100.00
22688;BME280;11511;51.514;7.080;2023-08-17T03:09:58;101457.00;;;15.45;100.00
22688;BME280;11511;51.514;7.080;2023-08-17T03:12:30;101462.38;;;15.43;100.00
22688;BME280;11511;51.514;7.080;2023-08-17T03:15:02;101452.88;;;15.38;100.00
22688;BME280;11511;51.514;7.080;2023-08-17T03:49:58;101459.31;;;15.32;100.00
22688;BME280;11511;51.514;7.080;2023-08-17T03:52:30;101455.28;;;15.23;100.00
22688;BME280;11511;51.514;7.080;2023-08-17T03:55:02;101454.47;;;15.21;100.00
22688;BME280;11511;51.514;7.080;2023-08-17T03:57:34;101459.78;;;15.21;100.00
22688;BME280;11511;51.514;7.080;2023-08-17T04:00:06;101454.53;;;15.20;100.00
22688;BME280;11511;51.514;7.080;2023-08-17T04:02:39;101458.78;;;15.24;100.00
22688;BME280;11511;51.514;7.080;2023-08-17T04:05:11;101460.38;;;15.28;100.00
22688;BME280;11511;51.514;7.080;2023-08-17T04:07:43;101465.03;;;15.23;100.00
22688;BME280;11511;51.514;7.080;2023-08-17T04:10:15;101463.47;;;15.17;100.00
22688;BME280;11511;51.514;7.080;2023-08-17T04:12:47;101464.28;;;15.19;100.00
22688;BME280;11511;51.514;7.080;2023-08-17T04:15:19;101459.03;;;15.18;100.00
22688;BME280;11511;51.514;7.080;2023-08-17T04:17:51;101461.63;;;15.19;100.00
22688;BME280;11511;51.514;7.080;2023-08-17T04:20:23;101466.00;;;15.20;100.00
22688;BME280;11511;51.514;7.080;2023-08-17T04:22:57;101469.66;;;15.18;100.00
22688;BME280;11511;51.514;7.080;2023-08-17T04:25:29;101469.59;;;15.19;100.00
22688;BME280;11511;51.514;7.080;2023-08-17T04:28:01;101474.78;;;15.22;100.00
22688;BME280;11511;51.514;7.080;2023-08-17T04:30:33;101471.94;;;15.27;100.00
22688;BME280;11511;51.514;7.080;2023-08-17T04:33:05;101472.06;;;15.24;100.00
22688;BME280;11511;51.514;7.080;2023-08-17T04:35:39;101473.78;;;15.25;100.00
22688;BME280;11511;51.514;7.080;2023-08-17T04:38:11;101472.00;;;15.26;100.00
22688;BME280;11511;51.514;7.080;2023-08-17T04:40:43;101478.03;;;15.29;100.00
22688;BME280;11511;51.514;7.080;2023-08-17T04:43:15;101472.72;;;15.29;100.00
22688;BME280;11511;51.514;7.080;2023-08-17T04:45:47;101475.22;;;15.32;100.00
22688;BME280;11511;51.514;7.080;2023-08-17T04:48:19;101476.94;;;15.33;100.00
22688;BME280;11511;51.514;7.080;2023-08-17T04:50:51;101477.75;;;15.35;100.00
22688;BME280;11511;51.514;7.080;2023-08-17T04:53:23;101476.69;;;15.39;100.00
22688;BME280;11511;51.514;7.080;2023-08-17T04:55:55;101480.22;;;15.40;100.00
22688;BME280;11511;51.514;7.080;2023-08-17T04:58:27;101474.84;;;15.41;100.00
22688;BME280;11511;51.514;7.080;2023-08-17T05:00:59;101473.72;;;15.47;100.00
22688;BME280;11511;51.514;7.080;2023-08-17T05:03:31;101483.47;;;15.46;100.00
22688;BME280;11511;51.514;7.080;2023-08-17T05:06:03;101476.31;;;15.48;100.00
